Time;durP1;ratioP1;P1;durP2;ratioP2;P2;SDS_P1;SDS_P2;PMS_P1;PMS_P2;Temp;Humidity;BMP_temperature;BMP_pressure;BME280_temperature;BME280_humidity;BME280_pressure;Samples;Min_cycle;Max_cycle;Signal;HPM_P1;HPM_P2
2021/12/29 10:57:02;;;;;;;3.13;1.30;;;;;;;8.59;100.00;98248.88;5110604;28;20556;-85
2021/12/29 10:59:32;;;;;;;1.50;1.40;;;;;;;9.24;100.00;98249.00;5110007;28;38520;-89
2021/12/29 11:02:00;;;;;;;2.77;1.43;;;;;;;9.73;100.00;98241.25;5111557;28;42059;-86
2021/12/29 11:04:28;;;;;;;2.97;1.13;;;;;;;10.31;100.00;98253.06;5094224;28;42168;-88
2021/12/29 11:07:01;;;;;;;1.73;1.10;;;;;;;10.67;100.00;98243.44;5092151;28;41432;-87
2021/12/29 11:09:32;;;;;;;1.20;1.10;;;;;;;10.92;97.60;98247.78;5092183;28;38960;-86
2021/12/29 11:12:09;;;;;;;3.60;1.30;;;;;;;11.04;95.04;98231.81;5126490;27;42021;-87
2021/12/29 11:14:42;;;;;;;2.17;1.20;;;;;;;11.26;93.94;98225.75;5092432;28;42780;-90
2021/12/29 11:17:12;;;;;;;2.10;0.90;;;;;;;11.46;92.64;98226.91;5092506;28;42383;-86
2021/12/29 11:19:49;;;;;;;1.97;0.93;;;;;;;11.66;91.53;98243.94;5091753;28;38818;-85
2021/12/29 11:22:20;;;;;;;1.40;1.30;;;;;;;11.70;90.37;98230.34;5092770;28;40682;-84
2021/12/29 11:24:56;;;;;;;0.90;0.90;;;;;;;11.77;89.77;98220.13;5107457;28;43555;-85
2021/12/29 11:27:27;;;;;;;0.97;0.87;;;;;;;11.87;89.45;98216.63;5092218;28;42317;-86
2021/12/29 11:29:57;;;;;;;1.20;0.97;;;;;;;12.13;88.31;98237.63;5091712;28;38792;-88
2021/12/29 11:32:30;;;;;;;1.27;1.10;;;;;;;12.23;87.51;98235.97;5091920;28;40761;-87
2021/12/29 11:35:12;;;;;;;1.07;1.00;;;;;;;12.20;86.22;98217.63;5091538;28;41825;-88
2021/12/29 11:37:42;;;;;;;1.43;1.33;;;;;;;12.29;83.55;98240.78;5093110;28;40988;-86
2021/12/29 11:40:12;;;;;;;1.43;1.20;;;;;;;12.30;82.77;98239.81;5126331;27;38540;-86
2021/12/29 11:42:41;;;;;;;1.10;1.00;;;;;;;12.30;83.02;98223.03;5091751;28;40694;-87
2021/12/29 11:45:13;;;;;;;1.03;0.93;;;;;;;12.33;81.98;98226.31;5091018;28;41757;-87
2021/12/29 11:47:41;;;;;;;1.27;0.90;;;;;;;12.28;79.36;98225.81;5126825;27;42292;-85
2021/12/29 11:50:12;;;;;;;0.73;0.73;;;;;;;12.38;79.42;98229.41;5144867;27;40773;-87
2021/12/29 11:52:52;;;;;;;0.80;0.80;;;;;;;12.48;79.07;98222.44;5093341;28;40797;-89
2021/12/29 11:55:24;;;;;;;1.20;0.83;;;;;;;12.62;77.53;98234.56;5093590;28;42921;-87
2021/12/29 11:58:08;;;;;;;1.57;1.10;;;;;;;12.70;77.71;98228.66;5092317;28;41188;-87
2021/12/29 12:00:37;;;;;;;0.80;0.80;;;;;;;12.81;76.86;98239.25;5093135;28;38510;-86
2021/12/29 12:03:12;;;;;;;2.00;1.20;;;;;;;12.87;77.32;98238.75;5091807;28;40561;-87
2021/12/29 12:05:43;;;;;;;1.80;1.13;;;;;;;12.94;77.28;98240.78;5092625;28;41711;-86
2021/12/29 12:08:13;;;;;;;1.70;0.87;;;;;;;12.86;76.05;98221.09;5079202;28;42375;-87
2021/12/29 12:10:42;;;;;;;1.63;1.13;;;;;;;13.02;74.83;98226.84;5095454;28;39337;-86
2021/12/29 12:13:24;;;;;;;0.83;0.80;;;;;;;13.02;74.99;98210.91;5078605;28;41963;-86
2021/12/29 12:15:53;;;;;;;0.93;0.90;;;;;;;13.20;75.29;98216.56;5111101;28;43143;-90
2021/12/29 12:18:22;;;;;;;0.70;0.70;;;;;;;13.41;74.20;98222.72;5077587;28;41060;-88
2021/12/29 12:20:51;;;;;;;0.67;0.67;;;;;;;13.93;72.78;98224.47;5078176;28;40033;-87
2021/12/29 12:23:24;;;;;;;1.00;0.90;;;;;;;14.49;71.15;98248.00;5079145;28;41832;-86
2021/12/29 12:25:52;;;;;;;2.10;0.80;;;;;;;15.82;66.85;98253.59;5079227;28;41530;-88
2021/12/29 12:28:25;;;;;;;1.10;0.70;;;;;;;17.77;62.13;98268.50;5078590;28;41231;-85
2021/12/29 12:30:55;;;;;;;1.27;0.70;;;;;;;19.30;58.02;98291.72;5078735;28;39151;-87
2021/12/29 12:33:26;;;;;;;1.60;0.50;;;;;;;19.07;54.97;98307.63;5080126;28;40881;-86
2021/12/29 12:35:56;;;;;;;0.40;0.40;;;;;;;18.56;57.09;98287.91;5079595;28;42130;-88
2021/12/29 12:38:27;;;;;;;1.13;0.60;;;;;;;18.19;56.11;98279.31;5086719;28;40983;-84
2021/12/29 12:41:04;;;;;;;1.03;0.93;;;;;;;18.87;55.81;98304.38;5100702;28;39765;-85
2021/12/29 12:43:34;;;;;;;0.80;0.70;;;;;;;20.44;53.63;98296.16;5134641;28;40614;-87
2021/12/29 12:46:03;;;;;;;0.60;0.60;;;;;;;21.65;50.41;98320.88;5096976;28;42591;-86
2021/12/29 12:48:35;;;;;;;0.80;0.60;;;;;;;22.17;48.81;98309.38;5097885;28;42146;-85
2021/12/29 12:51:15;;;;;;;2.27;1.00;;;;;;;22.29;45.95;98334.88;5097559;28;38973;-87
2021/12/29 12:53:43;;;;;;;0.70;0.70;;;;;;;21.03;47.24;98331.63;5091610;28;41530;-87
2021/12/29 12:56:15;;;;;;;2.50;0.90;;;;;;;20.72;47.92;98319.97;5083521;28;41804;-87
2021/12/29 12:58:46;;;;;;;0.60;0.60;;;;;;;20.35;48.61;98302.56;5101475;28;43338;-86
2021/12/29 13:01:17;;;;;;;1.17;0.80;;;;;;;19.53;50.00;98329.59;5088518;28;39816;-87
2021/12/29 13:03:46;;;;;;;0.70;0.50;;;;;;;18.71;50.10;98324.91;5088352;28;40692;-86
2021/12/29 13:06:16;;;;;;;0.63;0.60;;;;;;;18.17;51.32;98297.41;5106294;28;41633;-85
2021/12/29 13:08:47;;;;;;;0.77;0.77;;;;;;;17.56;53.02;98311.59;5118348;28;42714;-89
2021/12/29 13:11:17;;;;;;;0.50;0.50;;;;;;;17.08;54.90;98302.06;5114856;28;38798;-84
2021/12/29 13:13:48;;;;;;;1.27;0.70;;;;;;;16.77;55.46;98298.88;5087010;28;41040;-86
2021/12/29 13:16:19;;;;;;;1.17;0.67;;;;;;;16.49;57.90;98276.59;5056551;28;42845;-87
2021/12/29 13:18:47;;;;;;;1.43;1.00;;;;;;;16.16;57.78;98291.34;5055321;28;40808;-86
2021/12/29 13:21:17;;;;;;;1.33;1.00;;;;;;;15.84;58.61;98274.81;5056491;28;38490;-86
2021/12/29 13:23:47;;;;;;;2.20;1.10;;;;;;;15.52;59.14;98268.91;5055971;28;41119;-86
2021/12/29 13:26:15;;;;;;;0.90;0.90;;;;;;;15.33;60.38;98270.59;5056085;28;43029;-85
2021/12/29 13:28:43;;;;;;;1.23;0.90;;;;;;;15.07;60.30;98264.13;5073077;28;41372;-88
2021/12/29 13:31:15;;;;;;;0.97;0.73;;;;;;;14.91;60.35;98271.81;5056272;28;38904;-88
2021/12/29 13:33:46;;;;;;;1.33;0.90;;;;;;;14.73;61.64;98274.28;5056486;28;40367;-89
2021/12/29 13:36:16;;;;;;;1.03;0.90;;;;;;;14.49;61.35;98290.63;5057066;28;41704;-85
2021/12/29 13:38:45;;;;;;;1.53;0.57;;;;;;;14.28;61.86;98285.31;5072741;28;42087;-86
2021/12/29 13:41:15;;;;;;;1.23;0.70;;;;;;;14.18;63.12;98287.09;5089778;28;40843;-88
2021/12/29 13:43:45;;;;;;;1.03;0.80;;;;;;;13.97;63.66;98255.16;5056971;28;40761;-85
2021/12/29 13:46:16;;;;;;;3.63;0.80;;;;;;;13.93;63.35;98276.84;5061178;28;41665;-83
2021/12/29 13:48:46;;;;;;;1.57;0.80;;;;;;;13.75;63.80;98273.94;5077697;28;42162;-86
2021/12/29 13:51:17;;;;;;;0.70;0.70;;;;;;;13.61;64.17;98271.59;5061781;28;38725;-86
2021/12/29 13:53:52;;;;;;;1.53;0.90;;;;;;;13.47;64.80;98264.78;5077510;28;41141;-87
2021/12/29 13:56:22;;;;;;;0.70;0.70;;;;;;;13.37;64.94;98268.31;5057673;28;41799;-88
2021/12/29 13:59:01;;;;;;;1.17;0.90;;;;;;;13.27;65.08;98285.03;5056572;28;41395;-88
2021/12/29 14:01:32;;;;;;;0.53;0.53;;;;;;;12.99;65.68;98258.16;5056053;28;38970;-87
2021/12/29 14:04:01;;;;;;;1.60;0.87;;;;;;;12.98;66.23;98273.28;5055670;28;42129;-88
2021/12/29 14:06:29;;;;;;;0.50;0.50;;;;;;;12.94;66.35;98287.78;5089455;28;43101;-86
2021/12/29 14:08:58;;;;;;;1.03;0.63;;;;;;;12.86;66.67;98291.03;5057209;28;42129;-84
2021/12/29 14:11:28;;;;;;;1.63;0.97;;;;;;;12.78;66.92;98300.59;5090506;28;39199;-85
2021/12/29 14:14:04;;;;;;;0.87;0.80;;;;;;;12.75;67.26;98314.13;5072511;28;42158;-87
2021/12/29 14:16:35;;;;;;;2.23;0.77;;;;;;;12.58;67.58;98303.06;5055869;28;42883;-87
2021/12/29 14:19:08;;;;;;;1.20;0.90;;;;;;;12.58;67.88;98318.16;5055591;28;42397;-86
2021/12/29 14:21:38;;;;;;;2.17;0.90;;;;;;;12.44;68.10;98313.91;5055705;28;38987;-84
2021/12/29 14:24:09;;;;;;;1.27;1.10;;;;;;;12.34;68.50;98305.00;5055849;28;42848;-88
2021/12/29 14:26:40;;;;;;;1.03;0.63;;;;;;;12.36;68.38;98318.16;5072466;28;41276;-86
2021/12/29 14:29:08;;;;;;;2.90;0.97;;;;;;;12.21;68.62;98296.28;5069027;28;42233;-89
2021/12/29 14:31:39;;;;;;;1.70;1.20;;;;;;;12.26;68.76;98304.72;5072422;28;40891;-87
2021/12/29 14:34:09;;;;;;;1.67;0.90;;;;;;;12.20;69.43;98313.19;5055645;28;40618;-85
2021/12/29 14:36:44;;;;;;;0.93;0.87;;;;;;;12.17;69.47;98308.09;5054795;28;41945;-89
2021/12/29 14:39:14;;;;;;;2.13;0.90;;;;;;;12.12;69.49;98316.41;5098959;28;42910;-86
2021/12/29 14:41:42;;;;;;;1.70;0.87;;;;;;;12.10;69.60;98314.88;5095974;28;39069;-86
2021/12/29 14:44:13;;;;;;;1.33;1.17;;;;;;;11.99;69.99;98309.53;5112491;28;40758;-86
2021/12/29 14:46:51;;;;;;;1.17;0.70;;;;;;;12.00;69.97;98305.91;5110966;28;44030;-86
2021/12/29 14:49:27;;;;;;;0.70;0.70;;;;;;;11.93;70.17;98292.28;5092404;28;41385;-87
2021/12/29 14:51:58;;;;;;;1.17;0.70;;;;;;;11.90;70.89;98294.31;5092339;28;39506;-87
2021/12/29 14:54:35;;;;;;;4.90;0.93;;;;;;;11.85;70.60;98290.22;5075015;28;40303;-86
2021/12/29 14:57:03;;;;;;;1.40;0.87;;;;;;;11.83;70.70;98286.84;5075568;28;42824;-85
2021/12/29 14:59:35;;;;;;;2.60;0.90;;;;;;;11.85;71.07;98299.97;5075571;28;42328;-87
2021/12/29 15:02:11;;;;;;;1.07;0.80;;;;;;;11.75;71.29;98291.88;5109277;28;38947;-86
2021/12/29 15:04:40;;;;;;;1.23;0.80;;;;;;;11.71;71.15;98295.69;5075340;28;41009;-87
2021/12/29 15:07:16;;;;;;;2.70;0.87;;;;;;;11.78;71.59;98306.72;5092291;28;42918;-86
2021/12/29 15:09:55;;;;;;;0.90;0.90;;;;;;;11.70;71.61;98303.75;5108747;28;42306;-88
2021/12/29 15:12:23;;;;;;;0.93;0.80;;;;;;;11.67;71.90;98302.19;5075594;28;38924;-85
2021/12/29 15:14:52;;;;;;;0.90;0.77;;;;;;;11.54;72.20;98293.47;5109126;28;41588;-87
2021/12/29 15:17:22;;;;;;;0.73;0.70;;;;;;;11.46;72.35;98301.16;5075192;28;42744;-84
2021/12/29 15:19:50;;;;;;;1.30;0.70;;;;;;;11.44;72.71;98316.34;5074352;28;43634;-87
2021/12/29 15:22:18;;;;;;;0.80;0.80;;;;;;;11.45;72.65;98307.41;5075089;28;39973;-85
2021/12/29 15:24:46;;;;;;;3.07;1.20;;;;;;;11.53;72.36;98324.44;5074940;28;41776;-85
2021/12/29 15:27:14;;;;;;;1.57;1.13;;;;;;;11.42;72.51;98295.22;5074888;28;43549;-86
2021/12/29 15:29:41;;;;;;;1.40;1.20;;;;;;;11.26;72.76;98256.72;5074612;28;41036;-86
2021/12/29 15:32:09;;;;;;;1.20;1.10;;;;;;;11.45;73.19;98300.31;5091670;28;39883;-85
2021/12/29 15:34:39;;;;;;;1.20;1.10;;;;;;;11.37;73.33;98291.25;5074302;28;40487;-87
2021/12/29 15:37:07;;;;;;;1.93;1.30;;;;;;;11.34;73.40;98302.06;5074621;28;41922;-86
2021/12/29 15:39:35;;;;;;;1.43;1.20;;;;;;;11.40;73.37;98306.91;5074004;28;42402;-87
2021/12/29 15:42:03;;;;;;;1.57;1.30;;;;;;;11.32;73.61;98309.28;5092173;28;39857;-85
2021/12/29 15:44:31;;;;;;;1.10;1.00;;;;;;;11.30;73.75;98300.59;5077145;28;40590;-85
2021/12/29 15:46:59;;;;;;;3.97;1.47;;;;;;;11.31;74.18;98310.25;5083751;28;41781;-85
2021/12/29 15:49:26;;;;;;;1.17;1.07;;;;;;;11.26;74.27;98299.13;5098059;28;41133;-86
2021/12/29 15:51:58;;;;;;;2.10;1.20;;;;;;;11.23;74.63;98291.44;5098103;28;39920;-85
2021/12/29 15:54:25;;;;;;;2.03;1.40;;;;;;;11.21;75.22;98288.03;5114444;28;40834;-86
2021/12/29 15:56:53;;;;;;;1.73;1.63;;;;;;;11.18;75.20;98296.22;5098366;28;41501;-86
2021/12/29 15:59:20;;;;;;;1.70;1.40;;;;;;;11.24;75.29;98296.63;5097770;28;42147;-85
2021/12/29 16:01:48;;;;;;;2.13;1.10;;;;;;;11.24;75.33;98306.38;5115204;28;40778;-88
2021/12/29 16:04:17;;;;;;;1.43;1.00;;;;;;;11.18;76.45;98301.50;5115058;28;40603;-86
2021/12/29 16:06:44;;;;;;;1.87;1.00;;;;;;;11.11;76.58;98286.06;5082691;28;42667;-85
2021/12/29 16:09:13;;;;;;;1.33;1.33;;;;;;;11.01;76.34;98269.13;5057530;28;41417;-84
2021/12/29 16:11:41;;;;;;;1.43;1.33;;;;;;;11.06;77.15;98276.75;5108414;28;40442;-87
2021/12/29 16:14:09;;;;;;;0.90;0.90;;;;;;;11.05;77.47;98272.41;5057672;28;42117;-87
2021/12/29 16:16:37;;;;;;;0.93;0.93;;;;;;;11.00;77.83;98275.41;5098124;28;41978;-86
2021/12/29 16:19:05;;;;;;;0.93;0.93;;;;;;;10.98;77.47;98268.53;5117687;28;42208;-84
2021/12/29 16:21:32;;;;;;;2.97;0.90;;;;;;;10.97;78.34;98270.34;5103394;28;38858;-85
2021/12/29 16:24:00;;;;;;;1.23;1.03;;;;;;;10.97;78.36;98273.00;5098530;28;40591;-86
2021/12/29 16:26:29;;;;;;;2.27;1.10;;;;;;;10.91;79.21;98268.13;5098344;28;42580;-86
2021/12/29 16:29:03;;;;;;;1.30;0.70;;;;;;;10.90;79.33;98262.94;5077376;28;41219;-85
2021/12/29 16:31:30;;;;;;;1.37;1.27;;;;;;;10.97;79.25;98273.00;5076918;28;38905;-84
2021/12/29 16:34:00;;;;;;;1.10;1.00;;;;;;;10.85;80.01;98251.84;5104926;28;41828;-85
2021/12/29 16:36:29;;;;;;;1.20;1.10;;;;;;;10.84;80.23;98255.47;5056881;28;41998;-87
2021/12/29 16:38:57;;;;;;;1.20;1.20;;;;;;;10.88;80.52;98263.03;5056788;28;41174;-86
2021/12/29 16:41:25;;;;;;;2.10;1.10;;;;;;;10.75;80.78;98254.34;5056539;28;39235;-87
2021/12/29 16:43:55;;;;;;;1.40;1.30;;;;;;;10.82;80.99;98268.81;5073232;28;40767;-87
2021/12/29 16:46:23;;;;;;;1.40;1.17;;;;;;;10.73;81.20;98262.38;5090236;28;41778;-86
2021/12/29 16:48:52;;;;;;;3.23;1.30;;;;;;;10.81;80.98;98277.72;5073323;28;40985;-86
2021/12/29 16:51:21;;;;;;;0.90;0.90;;;;;;;10.61;81.05;98238.59;5074437;28;39725;-86
2021/12/29 16:53:51;;;;;;;1.10;1.00;;;;;;;10.78;80.75;98259.38;5074447;28;42738;-87
2021/12/29 16:56:20;;;;;;;2.33;1.67;;;;;;;10.82;80.69;98268.81;5073309;28;41639;-86
2021/12/29 16:58:49;;;;;;;1.60;1.50;;;;;;;10.80;80.94;98270.72;5073071;28;41117;-86
2021/12/29 17:01:18;;;;;;;2.73;1.67;;;;;;;10.74;81.08;98255.28;5056449;28;38820;-88
2021/12/29 17:03:46;;;;;;;1.30;1.20;;;;;;;10.74;81.36;98248.19;5073606;28;41617;-85
2021/12/29 17:06:14;;;;;;;1.07;0.97;;;;;;;10.82;81.40;98273.25;5073258;28;42793;-85
2021/12/29 17:08:42;;;;;;;1.50;1.40;;;;;;;10.71;81.92;98255.50;5090167;28;42335;-85
2021/12/29 17:11:09;;;;;;;1.47;1.23;;;;;;;10.76;81.60;98263.94;5056390;28;38969;-86
2021/12/29 17:13:37;;;;;;;2.50;1.40;;;;;;;10.61;82.03;98238.59;5073142;28;42066;-87
2021/12/29 17:16:05;;;;;;;3.53;2.20;;;;;;;10.67;82.70;98256.66;5089521;28;41741;-87
2021/12/29 17:18:35;;;;;;;1.60;1.50;;;;;;;10.62;83.02;98262.31;5056283;28;41580;-87
2021/12/29 17:21:03;;;;;;;3.53;1.93;;;;;;;10.51;83.17;98238.38;5056958;28;39041;-86
2021/12/29 17:23:31;;;;;;;2.63;1.80;;;;;;;10.61;83.24;98257.97;5056584;28;41913;-87
2021/12/29 17:25:59;;;;;;;2.27;2.07;;;;;;;10.51;83.25;98248.16;5056006;28;41820;-88
2021/12/29 17:28:29;;;;;;;3.30;1.63;;;;;;;10.50;83.42;98254.41;5056108;28;40915;-87
2021/12/29 17:30:58;;;;;;;2.10;1.90;;;;;;;10.46;83.69;98255.56;5090003;28;39937;-85
2021/12/29 17:33:27;;;;;;;1.67;1.10;;;;;;;10.57;83.43;98274.19;5056132;28;41841;-86
2021/12/29 17:35:57;;;;;;;1.70;1.50;;;;;;;10.48;83.83;98243.09;5072154;28;42728;-87
2021/12/29 17:38:25;;;;;;;2.30;1.60;;;;;;;10.35;84.07;98228.09;5055724;28;41232;-86
2021/12/29 17:40:53;;;;;;;2.43;1.67;;;;;;;10.49;84.56;98250.06;5055741;28;39050;-87
2021/12/29 17:43:21;;;;;;;1.50;1.40;;;;;;;10.38;84.74;98237.59;5089713;28;41617;-85
2021/12/29 17:45:49;;;;;;;6.23;2.07;;;;;;;10.37;84.60;98235.91;5089255;28;43201;-86
2021/12/29 17:48:17;;;;;;;4.40;2.37;;;;;;;10.41;85.27;98243.50;5106735;28;42940;-84
2021/12/29 17:50:46;;;;;;;2.77;2.57;;;;;;;10.29;85.78;98225.84;5055405;28;39236;-83
